Logan Peak - 24 Hour Table
Date & TimeSolar
Radiation
(W/m²)
Wind
Speed
(mph)
Wind
Direction
(degrees)
Air
Temperature
(°F)
Relative
Humidity
(%)
Barometeric
Pressure
(inHg)
2019/08/25 21:00 0 24.8 304 53.8 45 29.98
2019/08/25 20:00 2 20.0 305 55.5 46 29.97
2019/08/25 19:00 83 19.3 292 58.4 43 29.96
2019/08/25 18:00 266 18.6 286 61.0 37 29.96
2019/08/25 17:00 455 22.7 290 62.5 33 29.97
2019/08/25 16:00 627 25.7 289 62.1 33 29.97
2019/08/25 15:00 760 26.8 282 61.4 34 29.98
2019/08/25 14:00 840 24.2 284 60.1 39 29.98
2019/08/25 13:00 871 23.0 277 58.9 38 29.99
2019/08/25 12:00 850 21.8 276 57.5 40 30.00
2019/08/25 11:00 771 19.1 279 56.6 41 30.00
2019/08/25 10:00 646 17.4 274 54.7 40 30.00
2019/08/25 09:00 484 17.6 281 53.8 44 30.00
2019/08/25 08:00 296 17.6 286 53.7 44 30.00
2019/08/25 07:00 100 18.7 297 53.8 42 29.98
2019/08/25 06:00 3 18.3 296 54.2 42 29.98
2019/08/25 05:00 0 18.6 283 55.2 41 29.97
2019/08/25 04:00 0 20.6 271 56.5 39 29.97
2019/08/25 03:00 0 22.4 264 58.9 33 29.97
2019/08/25 02:00 0 24.8 248 59.1 31 29.96
2019/08/25 01:00 0 23.4 245 59.4 31 29.97
2019/08/25 00:00 0 24.6 246 60.1 28 29.98
2019/08/24 23:00 0 24.0 244 60.4 27 29.98
2019/08/24 22:00 0 22.7 240 60.6 27 29.99